sensor_id;sensor_type;location;lat;lon;timestamp;pressure;altitude;pressure_sealevel;temperature;humidity
84032;BME280;74113;46.556;24.570;2024-01-15T00:01:43;97215.75;;;-0.39;59.62
84032;BME280;74113;46.556;24.570;2024-01-15T00:04:12;97220.60;;;-0.45;59.82
84032;BME280;74113;46.556;24.570;2024-01-15T00:06:41;97227.18;;;-0.54;60.37
84032;BME280;74113;46.556;24.570;2024-01-15T00:09:10;97232.39;;;-0.63;60.61
84032;BME280;74113;46.556;24.570;2024-01-15T00:11:38;97236.90;;;-0.70;61.11
84032;BME280;74113;46.556;24.570;2024-01-15T00:14:06;97234.02;;;-0.71;61.08
84032;BME280;74113;46.556;24.570;2024-01-15T00:16:35;97237.42;;;-0.70;61.03
84032;BME280;74113;46.556;24.570;2024-01-15T00:19:03;97237.89;;;-0.67;60.74
84032;BME280;74113;46.556;24.570;2024-01-15T00:21:32;97230.02;;;-0.63;60.90
84032;BME280;74113;46.556;24.570;2024-01-15T00:24:00;97217.17;;;-0.58;61.09
84032;BME280;74113;46.556;24.570;2024-01-15T00:26:28;97214.55;;;-0.51;61.69
84032;BME280;74113;46.556;24.570;2024-01-15T00:28:57;97210.92;;;-0.48;61.10
84032;BME280;74113;46.556;24.570;2024-01-15T00:31:25;97202.06;;;-0.48;61.08
84032;BME280;74113;46.556;24.570;2024-01-15T00:33:54;97197.60;;;-0.45;60.63
84032;BME280;74113;46.556;24.570;2024-01-15T00:36:22;97191.30;;;-0.44;60.68
84032;BME280;74113;46.556;24.570;2024-01-15T00:38:51;97190.75;;;-0.42;60.71
84032;BME280;74113;46.556;24.570;2024-01-15T00:41:20;97184.55;;;-0.37;60.41
84032;BME280;74113;46.556;24.570;2024-01-15T00:43:48;97184.47;;;-0.31;60.03
84032;BME280;74113;46.556;24.570;2024-01-15T00:46:17;97179.18;;;-0.31;59.99
84032;BME280;74113;46.556;24.570;2024-01-15T00:48:45;97182.44;;;-0.31;59.81
84032;BME280;74113;46.556;24.570;2024-01-15T00:51:15;97182.94;;;-0.31;59.58
84032;BME280;74113;46.556;24.570;2024-01-15T00:53:43;97182.95;;;-0.32;59.50
84032;BME280;74113;46.556;24.570;2024-01-15T00:56:12;97181.79;;;-0.34;59.40
84032;BME280;74113;46.556;24.570;2024-01-15T00:58:40;97172.42;;;-0.36;59.10
84032;BME280;74113;46.556;24.570;2024-01-15T01:01:08;97170.41;;;-0.37;59.20
84032;BME280;74113;46.556;24.570;2024-01-15T01:03:37;97165.69;;;-0.41;59.01
84032;BME280;74113;46.556;24.570;2024-01-15T01:06:06;97166.27;;;-0.47;59.16
84032;BME280;74113;46.556;24.570;2024-01-15T01:08:34;97161.58;;;-0.52;59.27
84032;BME280;74113;46.556;24.570;2024-01-15T01:11:03;97150.72;;;-0.56;59.43
84032;BME280;74113;46.556;24.570;2024-01-15T01:13:32;97148.52;;;-0.58;59.21
84032;BME280;74113;46.556;24.570;2024-01-15T01:16:01;97145.02;;;-0.64;59.39
84032;BME280;74113;46.556;24.570;2024-01-15T01:18:29;97147.46;;;-0.68;59.46
84032;BME280;74113;46.556;24.570;2024-01-15T01:20:58;97145.70;;;-0.77;59.35
84032;BME280;74113;46.556;24.570;2024-01-15T01:23:26;97148.05;;;-0.87;59.64
84032;BME280;74113;46.556;24.570;2024-01-15T01:25:55;97141.57;;;-1.02;59.84
84032;BME280;74113;46.556;24.570;2024-01-15T01:28:24;97145.95;;;-1.13;60.15
84032;BME280;74113;46.556;24.570;2024-01-15T01:30:52;97138.40;;;-1.23;60.59
84032;BME280;74113;46.556;24.570;2024-01-15T01:33:21;97141.22;;;-1.33;60.63
84032;BME280;74113;46.556;24.570;2024-01-15T01:35:50;97140.45;;;-1.42;61.06
84032;BME280;74113;46.556;24.570;2024-01-15T01:38:19;97137.50;;;-1.52;61.33
84032;BME280;74113;46.556;24.570;2024-01-15T01:40:47;97140.63;;;-1.59;61.76
84032;BME280;74113;46.556;24.570;2024-01-15T01:43:16;97144.23;;;-1.64;61.64
84032;BME280;74113;46.556;24.570;2024-01-15T01:45:44;97144.80;;;-1.71;62.30
84032;BME280;74113;46.556;24.570;2024-01-15T01:48:12;97149.09;;;-1.75;61.96
84032;BME280;74113;46.556;24.570;2024-01-15T01:50:42;97149.98;;;-1.80;62.54
84032;BME280;74113;46.556;24.570;2024-01-15T01:53:10;97143.04;;;-1.81;62.17
84032;BME280;74113;46.556;24.570;2024-01-15T01:55:39;97136.23;;;-1.82;62.14
84032;BME280;74113;46.556;24.570;2024-01-15T01:58:08;97131.32;;;-1.85;62.86
84032;BME280;74113;46.556;24.570;2024-01-15T02:00:36;97128.80;;;-1.87;63.20
84032;BME280;74113;46.556;24.570;2024-01-15T02:03:06;97125.05;;;-1.87;63.39
84032;BME280;74113;46.556;24.570;2024-01-15T02:05:35;97126.59;;;-1.88;63.56
84032;BME280;74113;46.556;24.570;2024-01-15T02:08:04;97127.42;;;-1.85;63.36
84032;BME280;74113;46.556;24.570;2024-01-15T02:10:33;97126.55;;;-1.84;63.17
84032;BME280;74113;46.556;24.570;2024-01-15T02:13:02;97125.36;;;-1.83;63.20
84032;BME280;74113;46.556;24.570;2024-01-15T02:15:30;97123.33;;;-1.85;63.22
84032;BME280;74113;46.556;24.570;2024-01-15T02:18:00;97117.38;;;-1.84;63.56
84032;BME280;74113;46.556;24.570;2024-01-15T02:20:30;97102.92;;;-1.84;63.42
84032;BME280;74113;46.556;24.570;2024-01-15T02:23:12;97081.72;;;-1.88;63.73
84032;BME280;74113;46.556;24.570;2024-01-15T02:25:43;97077.11;;;-1.85;63.79
84032;BME280;74113;46.556;24.570;2024-01-15T02:28:15;97065.64;;;-1.77;63.48
84032;BME280;74113;46.556;24.570;2024-01-15T02:30:44;97068.97;;;-1.70;63.58
84032;BME280;74113;46.556;24.570;2024-01-15T02:33:13;97066.73;;;-1.68;63.75
84032;BME280;74113;46.556;24.570;2024-01-15T02:35:42;97075.23;;;-1.67;63.67
84032;BME280;74113;46.556;24.570;2024-01-15T02:38:10;97082.70;;;-1.65;63.62
84032;BME280;74113;46.556;24.570;2024-01-15T02:40:39;97086.27;;;-1.66;63.76
84032;BME280;74113;46.556;24.570;2024-01-15T02:43:07;97082.35;;;-1.66;63.78
84032;BME280;74113;46.556;24.570;2024-01-15T02:45:36;97072.27;;;-1.60;63.94
84032;BME280;74113;46.556;24.570;2024-01-15T02:48:04;97056.90;;;-1.54;64.39
84032;BME280;74113;46.556;24.570;2024-01-15T02:50:33;97051.94;;;-1.50;64.39
84032;BME280;74113;46.556;24.570;2024-01-15T02:53:02;97052.42;;;-1.48;63.74
84032;BME280;74113;46.556;24.570;2024-01-15T02:55:30;97048.30;;;-1.45;63.74
84032;BME280;74113;46.556;24.570;2024-01-15T02:57:59;97043.83;;;-1.40;63.61
84032;BME280;74113;46.556;24.570;2024-01-15T03:00:27;97046.02;;;-1.38;63.31
84032;BME280;74113;46.556;24.570;2024-01-15T03:02:56;97042.39;;;-1.34;63.28
84032;BME280;74113;46.556;24.570;2024-01-15T03:05:25;97039.13;;;-1.31;63.25
84032;BME280;74113;46.556;24.570;2024-01-15T03:07:53;97042.96;;;-1.26;63.03
84032;BME280;74113;46.556;24.570;2024-01-15T03:10:22;97038.65;;;-1.20;63.19
84032;BME280;74113;46.556;24.570;2024-01-15T03:12:50;97036.73;;;-1.17;62.59
84032;BME280;74113;46.556;24.570;2024-01-15T03:15:19;97040.98;;;-1.15;63.11
84032;BME280;74113;46.556;24.570;2024-01-15T03:17:47;97030.19;;;-1.11;63.06
84032;BME280;74113;46.556;24.570;2024-01-15T03:20:16;97015.89;;;-1.11;62.86
84032;BME280;74113;46.556;24.570;2024-01-15T03:22:44;97017.45;;;-1.12;62.68
84032;BME280;74113;46.556;24.570;2024-01-15T03:25:13;97020.02;;;-1.14;62.76
84032;BME280;74113;46.556;24.570;2024-01-15T03:27:41;97017.95;;;-1.12;62.85
84032;BME280;74113;46.556;24.570;2024-01-15T03:30:10;97013.52;;;-1.11;62.67
84032;BME280;74113;46.556;24.570;2024-01-15T03:32:39;97010.45;;;-1.10;62.91
84032;BME280;74113;46.556;24.570;2024-01-15T03:35:07;97009.27;;;-1.11;62.97
84032;BME280;74113;46.556;24.570;2024-01-15T03:37:36;97013.86;;;-1.10;63.04
84032;BME280;74113;46.556;24.570;2024-01-15T03:40:05;97012.48;;;-1.10;63.22
84032;BME280;74113;46.556;24.570;2024-01-15T03:42:34;97013.86;;;-1.10;63.49
84032;BME280;74113;46.556;24.570;2024-01-15T03:45:03;97011.44;;;-1.08;63.40
84032;BME280;74113;46.556;24.570;2024-01-15T03:47:32;97012.42;;;-1.06;63.12
84032;BME280;74113;46.556;24.570;2024-01-15T03:50:00;97010.38;;;-1.05;63.25
84032;BME280;74113;46.556;24.570;2024-01-15T03:52:28;97010.53;;;-1.04;63.14
84032;BME280;74113;46.556;24.570;2024-01-15T03:54:57;97014.43;;;-1.02;63.50
84032;BME280;74113;46.556;24.570;2024-01-15T03:57:26;97008.45;;;-1.00;63.45
84032;BME280;74113;46.556;24.570;2024-01-15T03:59:55;97005.20;;;-0.99;63.61
84032;BME280;74113;46.556;24.570;2024-01-15T04:02:23;96998.81;;;-0.93;63.97
84032;BME280;74113;46.556;24.570;2024-01-15T04:04:52;96996.17;;;-0.87;63.78
84032;BME280;74113;46.556;24.570;2024-01-15T04:07:20;96991.20;;;-0.85;63.56
84032;BME280;74113;46.556;24.570;2024-01-15T04:09:49;96981.81;;;-0.83;63.35
84032;BME280;74113;46.556;24.570;2024-01-15T04:12:18;96973.77;;;-0.81;63.09
84032;BME280;74113;46.556;24.570;2024-01-15T04:14:46;96980.39;;;-0.78;63.09
84032;BME280;74113;46.556;24.570;2024-01-15T04:17:15;96972.48;;;-0.74;63.21
84032;BME280;74113;46.556;24.570;2024-01-15T04:19:44;96973.80;;;-0.70;63.17
84032;BME280;74113;46.556;24.570;2024-01-15T04:22:14;96977.38;;;-0.70;63.20
84032;BME280;74113;46.556;24.570;2024-01-15T04:24:42;96973.68;;;-0.74;63.09
84032;BME280;74113;46.556;24.570;2024-01-15T04:27:11;96972.15;;;-0.73;63.04
84032;BME280;74113;46.556;24.570;2024-01-15T04:29:40;96975.85;;;-0.71;62.95
84032;BME280;74113;46.556;24.570;2024-01-15T04:32:09;96973.89;;;-0.67;62.65
84032;BME280;74113;46.556;24.570;2024-01-15T04:34:38;96958.89;;;-0.64;62.77
84032;BME280;74113;46.556;24.570;2024-01-15T04:37:07;96956.13;;;-0.62;62.75
84032;BME280;74113;46.556;24.570;2024-01-15T04:39:35;96945.55;;;-0.61;62.43
84032;BME280;74113;46.556;24.570;2024-01-15T04:42:04;96936.64;;;-0.58;62.53
84032;BME280;74113;46.556;24.570;2024-01-15T04:44:33;96942.08;;;-0.56;62.46
84032;BME280;74113;46.556;24.570;2024-01-15T04:47:02;96942.39;;;-0.55;62.57
84032;BME280;74113;46.556;24.570;2024-01-15T04:49:30;96939.63;;;-0.53;62.74
84032;BME280;74113;46.556;24.570;2024-01-15T04:52:00;96931.13;;;-0.53;62.61
84032;BME280;74113;46.556;24.570;2024-01-15T04:54:28;96918.48;;;-0.53;62.44
84032;BME280;74113;46.556;24.570;2024-01-15T04:56:57;96923.38;;;-0.49;62.24
84032;BME280;74113;46.556;24.570;2024-01-15T04:59:25;96919.22;;;-0.44;62.34
84032;BME280;74113;46.556;24.570;2024-01-15T05:01:54;96917.66;;;-0.43;62.37
84032;BME280;74113;46.556;24.570;2024-01-15T05:04:23;96911.02;;;-0.43;62.14
84032;BME280;74113;46.556;24.570;2024-01-15T05:06:53;96912.39;;;-0.44;62.62
84032;BME280;74113;46.556;24.570;2024-01-15T05:09:22;96908.16;;;-0.46;62.43
84032;BME280;74113;46.556;24.570;2024-01-15T05:11:51;96904.72;;;-0.44;62.42
84032;BME280;74113;46.556;24.570;2024-01-15T05:14:19;96907.85;;;-0.38;62.53
84032;BME280;74113;46.556;24.570;2024-01-15T05:16:49;96910.26;;;-0.30;63.06
84032;BME280;74113;46.556;24.570;2024-01-15T05:19:18;96908.34;;;-0.27;62.85
84032;BME280;74113;46.556;24.570;2024-01-15T05:21:47;96908.30;;;-0.25;62.82
84032;BME280;74113;46.556;24.570;2024-01-15T05:24:16;96908.45;;;-0.24;62.53
84032;BME280;74113;46.556;24.570;2024-01-15T05:26:44;96905.56;;;-0.24;62.59
84032;BME280;74113;46.556;24.570;2024-01-15T05:29:13;96907.96;;;-0.25;62.43
84032;BME280;74113;46.556;24.570;2024-01-15T05:31:41;96911.08;;;-0.28;62.56
84032;BME280;74113;46.556;24.570;2024-01-15T05:34:10;96909.04;;;-0.28;62.52
84032;BME280;74113;46.556;24.570;2024-01-15T05:36:40;96904.97;;;-0.29;62.49
84032;BME280;74113;46.556;24.570;2024-01-15T05:39:09;96894.77;;;-0.30;62.54
84032;BME280;74113;46.556;24.570;2024-01-15T05:41:38;96892.09;;;-0.33;62.49
84032;BME280;74113;46.556;24.570;2024-01-15T05:44:06;96886.88;;;-0.37;62.40
84032;BME280;74113;46.556;24.570;2024-01-15T05:46:35;96883.91;;;-0.42;62.50
84032;BME280;74113;46.556;24.570;2024-01-15T05:49:06;96878.02;;;-0.47;62.68
84032;BME280;74113;46.556;24.570;2024-01-15T05:51:35;96875.51;;;-0.49;62.72
84032;BME280;74113;46.556;24.570;2024-01-15T05:54:05;96869.08;;;-0.51;62.96
84032;BME280;74113;46.556;24.570;2024-01-15T05:56:36;96870.96;;;-0.52;62.81
84032;BME280;74113;46.556;24.570;2024-01-15T05:59:07;96870.08;;;-0.50;62.98
84032;BME280;74113;46.556;24.570;2024-01-15T06:01:50;96867.15;;;-0.49;62.85
84032;BME280;74113;46.556;24.570;2024-01-15T06:04:19;96868.02;;;-0.49;63.33
84032;BME280;74113;46.556;24.570;2024-01-15T06:06:50;96861.75;;;-0.42;65.50
84032;BME280;74113;46.556;24.570;2024-01-15T06:09:20;96853.24;;;-0.16;65.81
84032;BME280;74113;46.556;24.570;2024-01-15T06:11:49;96859.38;;;0.03;63.83
84032;BME280;74113;46.556;24.570;2024-01-15T06:14:18;96862.02;;;0.15;65.02
84032;BME280;74113;46.556;24.570;2024-01-15T06:16:47;96863.04;;;0.32;65.02
84032;BME280;74113;46.556;24.570;2024-01-15T06:19:15;96866.33;;;0.38;63.57
84032;BME280;74113;46.556;24.570;2024-01-15T06:21:45;96867.56;;;0.44;64.04
84032;BME280;74113;46.556;24.570;2024-01-15T06:24:13;96872.45;;;0.54;64.83
84032;BME280;74113;46.556;24.570;2024-01-15T06:26:43;96875.00;;;0.70;65.41
84032;BME280;74113;46.556;24.570;2024-01-15T06:29:11;96869.34;;;0.87;62.77
84032;BME280;74113;46.556;24.570;2024-01-15T06:31:40;96865.88;;;0.88;62.92
84032;BME280;74113;46.556;24.570;2024-01-15T06:34:09;96858.68;;;0.90;62.58
84032;BME280;74113;46.556;24.570;2024-01-15T06:36:38;96851.16;;;0.90;61.56
84032;BME280;74113;46.556;24.570;2024-01-15T06:39:07;96855.23;;;0.84;61.69
84032;BME280;74113;46.556;24.570;2024-01-15T06:41:36;96855.97;;;0.81;62.62
84032;BME280;74113;46.556;24.570;2024-01-15T06:44:14;96846.41;;;0.88;62.82
84032;BME280;74113;46.556;24.570;2024-01-15T06:46:43;96846.05;;;0.89;61.53
84032;BME280;74113;46.556;24.570;2024-01-15T06:49:12;96860.61;;;0.80;61.28
84032;BME280;74113;46.556;24.570;2024-01-15T06:51:41;96859.24;;;0.72;61.59
84032;BME280;74113;46.556;24.570;2024-01-15T06:54:11;96850.65;;;0.68;60.91
84032;BME280;74113;46.556;24.570;2024-01-15T06:56:40;96846.05;;;0.75;62.22
84032;BME280;74113;46.556;24.570;2024-01-15T06:59:10;96842.03;;;0.93;61.19
84032;BME280;74113;46.556;24.570;2024-01-15T07:01:38;96836.66;;;1.11;60.70
84032;BME280;74113;46.556;24.570;2024-01-15T07:04:08;96828.80;;;1.11;60.26
84032;BME280;74113;46.556;24.570;2024-01-15T07:06:37;96830.51;;;1.11;61.93
84032;BME280;74113;46.556;24.570;2024-01-15T07:09:05;96829.84;;;1.30;61.06
84032;BME280;74113;46.556;24.570;2024-01-15T07:11:35;96829.02;;;1.30;60.61
84032;BME280;74113;46.556;24.570;2024-01-15T07:14:04;96828.28;;;1.25;60.35
84032;BME280;74113;46.556;24.570;2024-01-15T07:16:33;96820.87;;;1.21;59.98
84032;BME280;74113;46.556;24.570;2024-01-15T07:19:05;96813.59;;;1.12;60.48
84032;BME280;74113;46.556;24.570;2024-01-15T07:21:36;96808.89;;;1.15;60.53
84032;BME280;74113;46.556;24.570;2024-01-15T07:24:09;96808.38;;;1.21;61.53
84032;BME280;74113;46.556;24.570;2024-01-15T07:26:39;96804.34;;;1.26;60.98
84032;BME280;74113;46.556;24.570;2024-01-15T07:29:09;96796.92;;;1.28;61.64
84032;BME280;74113;46.556;24.570;2024-01-15T07:31:38;96796.27;;;1.27;61.24
84032;BME280;74113;46.556;24.570;2024-01-15T07:34:07;96800.33;;;1.29;61.41
84032;BME280;74113;46.556;24.570;2024-01-15T07:36:36;96801.49;;;1.37;60.85
84032;BME280;74113;46.556;24.570;2024-01-15T07:39:05;96793.87;;;1.47;61.92
84032;BME280;74113;46.556;24.570;2024-01-15T07:41:35;96791.84;;;1.53;60.27
84032;BME280;74113;46.556;24.570;2024-01-15T07:44:06;96788.89;;;1.54;60.28
84032;BME280;74113;46.556;24.570;2024-01-15T07:46:35;96781.39;;;1.54;60.31
84032;BME280;74113;46.556;24.570;2024-01-15T07:49:04;96780.38;;;1.66;59.82
84032;BME280;74113;46.556;24.570;2024-01-15T07:51:34;96770.11;;;1.72;59.21
84032;BME280;74113;46.556;24.570;2024-01-15T07:54:03;96762.33;;;1.75;58.85
84032;BME280;74113;46.556;24.570;2024-01-15T07:56:33;96759.09;;;1.81;57.90
84032;BME280;74113;46.556;24.570;2024-01-15T07:59:03;96762.04;;;1.85;57.67
84032;BME280;74113;46.556;24.570;2024-01-15T08:01:34;96769.46;;;1.95;58.29
84032;BME280;74113;46.556;24.570;2024-01-15T08:04:03;96770.10;;;2.02;57.84
84032;BME280;74113;46.556;24.570;2024-01-15T08:06:33;96768.39;;;2.08;57.55
84032;BME280;74113;46.556;24.570;2024-01-15T08:09:04;96770.92;;;2.22;57.50
84032;BME280;74113;46.556;24.570;2024-01-15T08:11:42;96769.58;;;2.26;57.08
84032;BME280;74113;46.556;24.570;2024-01-15T08:14:12;96761.90;;;2.31;57.07
84032;BME280;74113;46.556;24.570;2024-01-15T08:16:49;96762.35;;;2.38;57.58
84032;BME280;74113;46.556;24.570;2024-01-15T08:19:18;96766.13;;;2.49;56.76
84032;BME280;74113;46.556;24.570;2024-01-15T08:21:49;96761.44;;;2.51;56.36
84032;BME280;74113;46.556;24.570;2024-01-15T08:24:18;96763.35;;;2.55;56.56
84032;BME280;74113;46.556;24.570;2024-01-15T08:26:48;96765.36;;;2.57;56.01
84032;BME280;74113;46.556;24.570;2024-01-15T08:29:17;96763.29;;;2.58;56.75
84032;BME280;74113;46.556;24.570;2024-01-15T08:31:47;96756.79;;;2.63;56.53
84032;BME280;74113;46.556;24.570;2024-01-15T08:34:16;96750.14;;;2.68;56.53
84032;BME280;74113;46.556;24.570;2024-01-15T08:36:45;96742.23;;;2.74;56.46
84032;BME280;74113;46.556;24.570;2024-01-15T08:39:15;96741.09;;;2.77;56.04
84032;BME280;74113;46.556;24.570;2024-01-15T08:41:45;96747.88;;;2.79;55.94
84032;BME280;74113;46.556;24.570;2024-01-15T08:44:31;96753.63;;;2.82;56.56
84032;BME280;74113;46.556;24.570;2024-01-15T08:47:00;96749.39;;;2.91;57.25
84032;BME280;74113;46.556;24.570;2024-01-15T08:49:30;96751.35;;;3.04;56.60
84032;BME280;74113;46.556;24.570;2024-01-15T08:51:59;96746.31;;;3.11;55.88
84032;BME280;74113;46.556;24.570;2024-01-15T08:54:28;96742.52;;;3.17;55.83
84032;BME280;74113;46.556;24.570;2024-01-15T08:56:56;96738.05;;;3.18;54.76
84032;BME280;74113;46.556;24.570;2024-01-15T08:59:26;96739.10;;;3.17;55.69
84032;BME280;74113;46.556;24.570;2024-01-15T09:01:55;96737.55;;;3.27;56.23
84032;BME280;74113;46.556;24.570;2024-01-15T09:04:28;96734.66;;;3.36;55.20
84032;BME280;74113;46.556;24.570;2024-01-15T09:07:08;96733.48;;;3.45;56.33
84032;BME280;74113;46.556;24.570;2024-01-15T09:09:40;96727.45;;;3.60;55.21
84032;BME280;74113;46.556;24.570;2024-01-15T09:12:12;96720.03;;;3.61;53.89
84032;BME280;74113;46.556;24.570;2024-01-15T09:14:49;96716.95;;;3.57;53.70
84032;BME280;74113;46.556;24.570;2024-01-15T09:17:31;96707.10;;;3.54;53.50
84032;BME280;74113;46.556;24.570;2024-01-15T09:20:20;96698.21;;;3.49;53.39
84032;BME280;74113;46.556;24.570;2024-01-15T09:22:49;96682.36;;;3.46;53.06
84032;BME280;74113;46.556;24.570;2024-01-15T09:25:18;96678.61;;;3.40;53.43
84032;BME280;74113;46.556;24.570;2024-01-15T09:27:50;96677.98;;;3.39;54.20
84032;BME280;74113;46.556;24.570;2024-01-15T09:30:20;96671.48;;;3.43;54.36
84032;BME280;74113;46.556;24.570;2024-01-15T09:32:49;96669.89;;;3.50;53.72
84032;BME280;74113;46.556;24.570;2024-01-15T09:35:18;96676.21;;;3.50;53.75
84032;BME280;74113;46.556;24.570;2024-01-15T09:37:51;96681.79;;;3.57;54.09
84032;BME280;74113;46.556;24.570;2024-01-15T09:40:20;96688.07;;;3.63;54.12
84032;BME280;74113;46.556;24.570;2024-01-15T09:42:52;96691.81;;;3.74;54.69
84032;BME280;74113;46.556;24.570;2024-01-15T09:45:21;96680.56;;;3.81;54.10
84032;BME280;74113;46.556;24.570;2024-01-15T09:47:51;96677.06;;;3.87;54.72
84032;BME280;74113;46.556;24.570;2024-01-15T09:50:20;96667.33;;;3.99;55.28
84032;BME280;74113;46.556;24.570;2024-01-15T09:52:50;96664.19;;;4.10;54.02
84032;BME280;74113;46.556;24.570;2024-01-15T09:55:21;96657.98;;;4.06;53.74
84032;BME280;74113;46.556;24.570;2024-01-15T09:57:52;96645.02;;;4.03;53.98
84032;BME280;74113;46.556;24.570;2024-01-15T10:00:22;96635.80;;;4.03;53.11
84032;BME280;74113;46.556;24.570;2024-01-15T10:02:52;96631.69;;;4.02;53.85
84032;BME280;74113;46.556;24.570;2024-01-15T10:05:22;96626.98;;;4.00;53.50
84032;BME280;74113;46.556;24.570;2024-01-15T10:08:06;96623.91;;;3.99;53.45
84032;BME280;74113;46.556;24.570;2024-01-15T10:10:36;96622.12;;;4.01;53.07
84032;BME280;74113;46.556;24.570;2024-01-15T10:13:06;96623.05;;;4.04;52.77
84032;BME280;74113;46.556;24.570;2024-01-15T10:15:37;96628.13;;;4.06;52.98
84032;BME280;74113;46.556;24.570;2024-01-15T10:18:08;96626.66;;;4.08;52.81
84032;BME280;74113;46.556;24.570;2024-01-15T10:20:38;96623.20;;;4.13;53.64
84032;BME280;74113;46.556;24.570;2024-01-15T10:23:08;96620.09;;;4.13;53.69
84032;BME280;74113;46.556;24.570;2024-01-15T10:25:37;96619.27;;;4.08;53.01
84032;BME280;74113;46.556;24.570;2024-01-15T10:28:06;96608.05;;;4.06;52.94
84032;BME280;74113;46.556;24.570;2024-01-15T10:30:35;96599.88;;;4.04;53.01
84032;BME280;74113;46.556;24.570;2024-01-15T10:33:07;96600.22;;;4.04;53.08
84032;BME280;74113;46.556;24.570;2024-01-15T10:35:45;96601.43;;;4.04;53.21
84032;BME280;74113;46.556;24.570;2024-01-15T10:38:15;96600.80;;;4.02;53.21
84032;BME280;74113;46.556;24.570;2024-01-15T10:40:46;96589.33;;;4.01;53.27
84032;BME280;74113;46.556;24.570;2024-01-15T10:43:16;96582.52;;;4.01;52.93
84032;BME280;74113;46.556;24.570;2024-01-15T10:45:47;96580.43;;;4.01;52.95
84032;BME280;74113;46.556;24.570;2024-01-15T10:48:19;96571.90;;;4.00;52.80
84032;BME280;74113;46.556;24.570;2024-01-15T10:50:48;96569.60;;;4.02;53.45
84032;BME280;74113;46.556;24.570;2024-01-15T10:53:17;96563.36;;;4.03;53.28
84032;BME280;74113;46.556;24.570;2024-01-15T10:55:47;96560.23;;;4.04;52.93
84032;BME280;74113;46.556;24.570;2024-01-15T10:58:20;96559.66;;;4.05;52.91
84032;BME280;74113;46.556;24.570;2024-01-15T11:00:51;96557.89;;;4.07;53.06
84032;BME280;74113;46.556;24.570;2024-01-15T11:03:20;96559.08;;;4.07;53.33
84032;BME280;74113;46.556;24.570;2024-01-15T11:05:53;96562.84;;;4.07;53.23
84032;BME280;74113;46.556;24.570;2024-01-15T11:08:25;96567.05;;;4.09;53.07
84032;BME280;74113;46.556;24.570;2024-01-15T11:10:55;96567.00;;;4.11;53.60
84032;BME280;74113;46.556;24.570;2024-01-15T11:13:52;96564.94;;;4.11;53.07
84032;BME280;74113;46.556;24.570;2024-01-15T11:16:20;96562.85;;;4.11;52.51
84032;BME280;74113;46.556;24.570;2024-01-15T11:21:28;96565.80;;;4.15;52.60
84032;BME280;74113;46.556;24.570;2024-01-15T11:24:00;96559.73;;;4.16;52.20
84032;BME280;74113;46.556;24.570;2024-01-15T11:26:43;96560.69;;;4.18;52.50
84032;BME280;74113;46.556;24.570;2024-01-15T11:32:00;96566.43;;;4.21;52.60
84032;BME280;74113;46.556;24.570;2024-01-15T11:34:59;96570.88;;;4.25;52.56
84032;BME280;74113;46.556;24.570;2024-01-15T11:40:22;96569.50;;;4.34;52.79
84032;BME280;74113;46.556;24.570;2024-01-15T11:42:51;96571.94;;;4.37;52.91
84032;BME280;74113;46.556;24.570;2024-01-15T11:45:22;96562.27;;;4.38;53.54
84032;BME280;74113;46.556;24.570;2024-01-15T11:48:16;96553.70;;;4.42;53.38
84032;BME280;74113;46.556;24.570;2024-01-15T11:50:50;96549.48;;;4.44;52.96
84032;BME280;74113;46.556;24.570;2024-01-15T11:55:53;96542.16;;;4.51;52.22
84032;BME280;74113;46.556;24.570;2024-01-15T11:58:26;96539.83;;;4.57;52.66
84032;BME280;74113;46.556;24.570;2024-01-15T12:00:55;96541.50;;;4.62;53.21
84032;BME280;74113;46.556;24.570;2024-01-15T12:03:25;96539.14;;;4.65;53.02
84032;BME280;74113;46.556;24.570;2024-01-15T12:06:05;96539.42;;;4.67;52.93
84032;BME280;74113;46.556;24.570;2024-01-15T12:09:08;96535.43;;;4.67;52.87
84032;BME280;74113;46.556;24.570;2024-01-15T12:11:44;96535.31;;;4.70;52.67
84032;BME280;74113;46.556;24.570;2024-01-15T12:14:15;96530.10;;;4.71;52.95
84032;BME280;74113;46.556;24.570;2024-01-15T12:16:51;96529.72;;;4.72;52.41
84032;BME280;74113;46.556;24.570;2024-01-15T12:19:20;96529.81;;;4.74;52.64
84032;BME280;74113;46.556;24.570;2024-01-15T12:21:54;96526.10;;;4.77;52.65
84032;BME280;74113;46.556;24.570;2024-01-15T12:24:23;96523.20;;;4.76;52.89
84032;BME280;74113;46.556;24.570;2024-01-15T12:26:53;96522.42;;;4.75;53.02
84032;BME280;74113;46.556;24.570;2024-01-15T12:29:21;96521.14;;;4.72;53.20
84032;BME280;74113;46.556;24.570;2024-01-15T12:31:53;96522.50;;;4.68;53.60
84032;BME280;74113;46.556;24.570;2024-01-15T12:34:22;96524.27;;;4.63;53.40
84032;BME280;74113;46.556;24.570;2024-01-15T12:36:51;96525.71;;;4.62;53.47
84032;BME280;74113;46.556;24.570;2024-01-15T12:39:20;96523.08;;;4.55;53.19
84032;BME280;74113;46.556;24.570;2024-01-15T12:41:49;96519.48;;;4.47;53.47
84032;BME280;74113;46.556;24.570;2024-01-15T12:44:18;96519.05;;;4.41;53.26
84032;BME280;74113;46.556;24.570;2024-01-15T12:46:48;96516.67;;;4.36;53.29
84032;BME280;74113;46.556;24.570;2024-01-15T12:49:18;96517.06;;;4.35;53.32
84032;BME280;74113;46.556;24.570;2024-01-15T12:51:54;96516.72;;;4.35;53.34
84032;BME280;74113;46.556;24.570;2024-01-15T12:54:23;96516.28;;;4.34;52.88
84032;BME280;74113;46.556;24.570;2024-01-15T12:56:52;96513.89;;;4.33;53.44
84032;BME280;74113;46.556;24.570;2024-01-15T12:59:24;96511.75;;;4.35;53.75
84032;BME280;74113;46.556;24.570;2024-01-15T13:01:53;96516.15;;;4.37;54.15
84032;BME280;74113;46.556;24.570;2024-01-15T13:04:24;96512.88;;;4.37;53.86
84032;BME280;74113;46.556;24.570;2024-01-15T13:06:56;96513.92;;;4.37;53.72
84032;BME280;74113;46.556;24.570;2024-01-15T13:09:35;96518.35;;;4.37;53.68
84032;BME280;74113;46.556;24.570;2024-01-15T13:12:04;96524.52;;;4.38;54.09
84032;BME280;74113;46.556;24.570;2024-01-15T13:14:34;96528.67;;;4.37;53.80
84032;BME280;74113;46.556;24.570;2024-01-15T13:17:02;96528.48;;;4.38;53.98
84032;BME280;74113;46.556;24.570;2024-01-15T13:19:31;96527.45;;;4.38;53.73
84032;BME280;74113;46.556;24.570;2024-01-15T13:22:01;96524.20;;;4.37;53.35